Terminal Aerodrome Forecast
Issued by NWS Los Angeles, CA

Home | Current Version | Previous Version | Text Only | Print | Product List | Glossary On
Versions: 1 2 3 4 5 6 7 8 9 10 11 12 13 14 15 16 17 18 19 20 21 22 23 24 25
000
FTUS46 KLOX 162300 RRA
TAFSMX
TAF
KSMX 162351Z 1700/1724 30015G25KT P6SM SCT250
     FM170300 30008KT P6SM SCT250
     FM170600 30006KT 6SM BR SCT004
     FM170800 VRB03KT 4SM BR BKN004
     FM171000 00000KT 1/4SM FG OVC001
     FM171500 VRB03KT 4SM BR BKN004
     FM171600 30008KT 6SM BR SCT007
     FM172000 30015G25KT P6SM FEW100=

USA.gov is the U.S. government's official web portal to all federal, state and local government web resources and services.